createdAt,value
2023-03-11T00:00:27.252Z,12.20
2023-03-11T00:02:56.347Z,12.10
2023-03-11T00:05:26.656Z,12.10
2023-03-11T00:07:54.252Z,12.20
2023-03-11T00:10:35.012Z,12.20
2023-03-11T00:13:04.058Z,12.10
2023-03-11T00:15:31.821Z,12.10
2023-03-11T00:17:58.975Z,12.20
2023-03-11T00:20:35.124Z,12.30
2023-03-11T00:23:03.036Z,12.30
2023-03-11T00:25:31.867Z,12.20
2023-03-11T00:27:59.064Z,12.20
2023-03-11T00:30:26.972Z,12.30
2023-03-11T00:32:56.112Z,12.30
2023-03-11T00:35:29.143Z,12.40
2023-03-11T00:38:02.623Z,12.40
2023-03-11T00:40:31.741Z,12.50
2023-03-11T00:42:59.293Z,12.50
2023-03-11T00:45:27.078Z,12.60
2023-03-11T00:47:54.675Z,12.60
2023-03-11T00:50:28.223Z,12.60
2023-03-11T00:52:55.525Z,12.50
2023-03-11T00:55:27.701Z,12.40
2023-03-11T00:57:56.695Z,12.40
2023-03-11T01:00:24.859Z,12.30
2023-03-11T01:02:53.444Z,12.30
2023-03-11T01:05:23.406Z,12.30
2023-03-11T01:07:50.268Z,12.30
2023-03-11T01:10:17.512Z,12.20
2023-03-11T01:12:44.632Z,12.20
2023-03-11T01:15:33.308Z,12.10
2023-03-11T01:18:00.592Z,12.10
2023-03-11T01:20:28.296Z,12.10
2023-03-11T01:22:55.248Z,12.00
2023-03-11T01:25:23.571Z,12.00
2023-03-11T01:27:50.502Z,11.90
2023-03-11T01:30:22.562Z,11.80
2023-03-11T01:32:50.137Z,11.90
2023-03-11T01:35:18.891Z,12.00
2023-03-11T01:37:46.455Z,11.90
2023-03-11T01:40:33.047Z,11.90
2023-03-11T01:43:01.181Z,11.90
2023-03-11T01:45:34.162Z,11.80
2023-03-11T01:48:01.136Z,11.80
2023-03-11T01:50:34.553Z,11.70
2023-03-11T01:53:01.807Z,11.70
2023-03-11T01:55:29.245Z,11.60
2023-03-11T01:57:56.677Z,11.60
2023-03-11T02:00:23.659Z,11.60
